RIC weather

Richmond International Airport
Richmond, Virginia, United States

Public forecast

Using degrees Fahrenheit for public forecast. Weather courtesy of forecast.io.

Current aviation weather report (METAR) for Richmond International Airport

Retrieved 2019/11/12 21:54 UTC (49 minutes ago):

KRIC 122154Z 00000KT 10SM FEW045 SCT110 BKN240 01/M01 A3006 RMK AO2 SLP184 T00111006

Aviation forecast (TAF) for Richmond International Airport

Retrieved 2019/11/12 18:22 UTC (4 hours ago):

TAF KRIC 121720Z 1218/1318 34014G23KT 2SM -RASN SCT009 OVC045 FM122000 34009KT 5SM BR VCSH OVC040 FM122100 34010G18KT P6SM VCSH BKN070 FM122200 34010KT P6SM BKN150 FM131400 36007KT P6SM SKC